sensor_id;sensor_type;location;lat;lon;timestamp;P1;durP1;ratioP1;P2;durP2;ratioP2
1601;SDS011;794;48.592;9.634;2022-07-17T00:02:00;4.10;;;3.20;;
1601;SDS011;794;48.592;9.634;2022-07-17T00:04:27;3.37;;;3.10;;
1601;SDS011;794;48.592;9.634;2022-07-17T00:06:55;3.67;;;3.30;;
1601;SDS011;794;48.592;9.634;2022-07-17T00:09:22;3.13;;;2.90;;
1601;SDS011;794;48.592;9.634;2022-07-17T00:11:49;3.57;;;3.30;;
1601;SDS011;794;48.592;9.634;2022-07-17T00:14:16;5.73;;;3.60;;
1601;SDS011;794;48.592;9.634;2022-07-17T00:16:43;3.30;;;3.00;;
1601;SDS011;794;48.592;9.634;2022-07-17T00:19:10;5.43;;;3.50;;
1601;SDS011;794;48.592;9.634;2022-07-17T00:21:37;4.60;;;3.43;;
1601;SDS011;794;48.592;9.634;2022-07-17T00:24:06;3.40;;;2.80;;
1601;SDS011;794;48.592;9.634;2022-07-17T00:26:33;3.80;;;3.40;;
1601;SDS011;794;48.592;9.634;2022-07-17T00:29:01;3.50;;;3.00;;
1601;SDS011;794;48.592;9.634;2022-07-17T00:31:29;4.73;;;3.37;;
1601;SDS011;794;48.592;9.634;2022-07-17T00:34:05;3.00;;;2.80;;
1601;SDS011;794;48.592;9.634;2022-07-17T00:36:32;4.33;;;3.40;;
1601;SDS011;794;48.592;9.634;2022-07-17T00:38:59;3.17;;;2.93;;
1601;SDS011;794;48.592;9.634;2022-07-17T00:41:27;3.47;;;3.17;;
1601;SDS011;794;48.592;9.634;2022-07-17T00:43:54;3.80;;;3.50;;
1601;SDS011;794;48.592;9.634;2022-07-17T00:46:21;5.40;;;4.10;;
1601;SDS011;794;48.592;9.634;2022-07-17T00:48:49;3.67;;;3.37;;
1601;SDS011;794;48.592;9.634;2022-07-17T00:51:15;3.77;;;3.47;;
1601;SDS011;794;48.592;9.634;2022-07-17T00:53:42;3.90;;;3.60;;
1601;SDS011;794;48.592;9.634;2022-07-17T00:56:10;4.00;;;3.70;;
1601;SDS011;794;48.592;9.634;2022-07-17T00:58:40;4.70;;;4.30;;
1601;SDS011;794;48.592;9.634;2022-07-17T01:01:07;3.70;;;3.40;;
1601;SDS011;794;48.592;9.634;2022-07-17T01:03:34;2.97;;;2.77;;
1601;SDS011;794;48.592;9.634;2022-07-17T01:06:02;3.20;;;2.90;;
1601;SDS011;794;48.592;9.634;2022-07-17T01:08:29;3.67;;;3.30;;
1601;SDS011;794;48.592;9.634;2022-07-17T01:10:57;3.43;;;3.13;;
1601;SDS011;794;48.592;9.634;2022-07-17T01:13:30;3.10;;;2.87;;
1601;SDS011;794;48.592;9.634;2022-07-17T01:15:59;3.97;;;2.83;;
1601;SDS011;794;48.592;9.634;2022-07-17T01:18:26;4.07;;;3.67;;
1601;SDS011;794;48.592;9.634;2022-07-17T01:20:53;4.37;;;3.83;;
1601;SDS011;794;48.592;9.634;2022-07-17T01:23:21;3.97;;;3.57;;
1601;SDS011;794;48.592;9.634;2022-07-17T01:25:48;9.90;;;3.93;;
1601;SDS011;794;48.592;9.634;2022-07-17T01:28:15;3.47;;;3.27;;
1601;SDS011;794;48.592;9.634;2022-07-17T01:30:56;5.30;;;4.33;;
1601;SDS011;794;48.592;9.634;2022-07-17T01:33:23;3.37;;;3.07;;
1601;SDS011;794;48.592;9.634;2022-07-17T01:35:50;5.00;;;3.90;;
1601;SDS011;794;48.592;9.634;2022-07-17T01:38:17;3.83;;;3.53;;
1601;SDS011;794;48.592;9.634;2022-07-17T01:43:27;4.10;;;3.80;;
1601;SDS011;794;48.592;9.634;2022-07-17T01:45:54;3.90;;;3.60;;
1601;SDS011;794;48.592;9.634;2022-07-17T01:48:25;3.37;;;3.17;;
1601;SDS011;794;48.592;9.634;2022-07-17T01:50:54;4.10;;;3.70;;
1601;SDS011;794;48.592;9.634;2022-07-17T01:53:21;3.73;;;3.43;;
1601;SDS011;794;48.592;9.634;2022-07-17T01:55:49;6.13;;;4.30;;
1601;SDS011;794;48.592;9.634;2022-07-17T01:58:17;3.57;;;3.27;;
1601;SDS011;794;48.592;9.634;2022-07-17T02:00:44;4.17;;;3.23;;
1601;SDS011;794;48.592;9.634;2022-07-17T02:03:11;4.30;;;4.00;;
1601;SDS011;794;48.592;9.634;2022-07-17T02:05:37;6.63;;;4.10;;
1601;SDS011;794;48.592;9.634;2022-07-17T02:08:05;3.87;;;3.57;;
1601;SDS011;794;48.592;9.634;2022-07-17T02:10:32;4.37;;;3.93;;
1601;SDS011;794;48.592;9.634;2022-07-17T02:12:59;4.43;;;3.30;;
1601;SDS011;794;48.592;9.634;2022-07-17T02:15:27;3.90;;;3.60;;
1601;SDS011;794;48.592;9.634;2022-07-17T02:17:54;6.50;;;4.43;;
1601;SDS011;794;48.592;9.634;2022-07-17T02:20:21;4.50;;;4.10;;
1601;SDS011;794;48.592;9.634;2022-07-17T02:22:55;4.57;;;3.80;;
1601;SDS011;794;48.592;9.634;2022-07-17T02:25:24;5.50;;;4.60;;
1601;SDS011;794;48.592;9.634;2022-07-17T02:27:50;4.70;;;4.07;;
1601;SDS011;794;48.592;9.634;2022-07-17T02:30:18;4.67;;;4.27;;
1601;SDS011;794;48.592;9.634;2022-07-17T02:32:46;4.43;;;4.13;;
1601;SDS011;794;48.592;9.634;2022-07-17T02:35:13;4.20;;;3.90;;
1601;SDS011;794;48.592;9.634;2022-07-17T02:37:40;4.47;;;4.17;;
1601;SDS011;794;48.592;9.634;2022-07-17T02:40:08;4.87;;;4.47;;
1601;SDS011;794;48.592;9.634;2022-07-17T02:42:36;5.20;;;3.80;;
1601;SDS011;794;48.592;9.634;2022-07-17T02:45:03;7.47;;;4.40;;
1601;SDS011;794;48.592;9.634;2022-07-17T02:47:31;4.67;;;4.27;;
1601;SDS011;794;48.592;9.634;2022-07-17T02:50:02;4.30;;;4.00;;
1601;SDS011;794;48.592;9.634;2022-07-17T02:52:31;5.97;;;5.50;;
1601;SDS011;794;48.592;9.634;2022-07-17T02:55:01;4.90;;;4.50;;
1601;SDS011;794;48.592;9.634;2022-07-17T02:57:28;4.53;;;4.17;;
1601;SDS011;794;48.592;9.634;2022-07-17T02:59:55;4.20;;;3.80;;
1601;SDS011;794;48.592;9.634;2022-07-17T03:02:22;4.90;;;4.60;;
1601;SDS011;794;48.592;9.634;2022-07-17T03:04:50;4.60;;;4.30;;
1601;SDS011;794;48.592;9.634;2022-07-17T03:07:18;4.30;;;3.93;;
1601;SDS011;794;48.592;9.634;2022-07-17T03:09:45;5.10;;;4.47;;
1601;SDS011;794;48.592;9.634;2022-07-17T03:12:12;4.13;;;3.83;;
1601;SDS011;794;48.592;9.634;2022-07-17T03:14:39;4.63;;;4.33;;
1601;SDS011;794;48.592;9.634;2022-07-17T03:17:06;5.70;;;5.23;;
1601;SDS011;794;48.592;9.634;2022-07-17T03:19:33;4.50;;;4.13;;
1601;SDS011;794;48.592;9.634;2022-07-17T03:22:00;6.27;;;5.67;;
1601;SDS011;794;48.592;9.634;2022-07-17T03:24:28;4.63;;;4.23;;
1601;SDS011;794;48.592;9.634;2022-07-17T03:26:55;5.80;;;4.57;;
1601;SDS011;794;48.592;9.634;2022-07-17T03:29:22;4.50;;;4.20;;
1601;SDS011;794;48.592;9.634;2022-07-17T03:31:49;5.57;;;4.33;;
1601;SDS011;794;48.592;9.634;2022-07-17T03:34:16;5.60;;;5.10;;
1601;SDS011;794;48.592;9.634;2022-07-17T03:36:43;4.37;;;4.00;;
1601;SDS011;794;48.592;9.634;2022-07-17T03:39:11;4.63;;;4.23;;
1601;SDS011;794;48.592;9.634;2022-07-17T03:41:40;4.20;;;3.90;;
1601;SDS011;794;48.592;9.634;2022-07-17T03:44:07;4.70;;;4.30;;
1601;SDS011;794;48.592;9.634;2022-07-17T03:46:34;4.90;;;4.40;;
1601;SDS011;794;48.592;9.634;2022-07-17T03:49:01;5.70;;;5.20;;
1601;SDS011;794;48.592;9.634;2022-07-17T03:51:28;4.33;;;4.03;;
1601;SDS011;794;48.592;9.634;2022-07-17T03:53:55;4.00;;;3.70;;
1601;SDS011;794;48.592;9.634;2022-07-17T03:58:59;5.00;;;4.50;;
1601;SDS011;794;48.592;9.634;2022-07-17T04:01:26;4.80;;;4.40;;
1601;SDS011;794;48.592;9.634;2022-07-17T04:03:53;4.80;;;4.40;;
1601;SDS011;794;48.592;9.634;2022-07-17T04:06:20;4.80;;;4.27;;
1601;SDS011;794;48.592;9.634;2022-07-17T04:08:47;4.50;;;4.10;;
1601;SDS011;794;48.592;9.634;2022-07-17T04:11:13;5.77;;;4.87;;
1601;SDS011;794;48.592;9.634;2022-07-17T04:13:40;4.77;;;4.37;;
1601;SDS011;794;48.592;9.634;2022-07-17T04:16:09;4.37;;;3.97;;
1601;SDS011;794;48.592;9.634;2022-07-17T04:18:36;3.93;;;3.73;;
1601;SDS011;794;48.592;9.634;2022-07-17T04:21:04;4.30;;;3.90;;
1601;SDS011;794;48.592;9.634;2022-07-17T04:23:33;5.37;;;3.83;;
1601;SDS011;794;48.592;9.634;2022-07-17T04:26:03;4.13;;;3.83;;
1601;SDS011;794;48.592;9.634;2022-07-17T04:28:36;4.30;;;4.00;;
1601;SDS011;794;48.592;9.634;2022-07-17T04:31:03;4.00;;;3.70;;
1601;SDS011;794;48.592;9.634;2022-07-17T04:33:31;4.30;;;3.90;;
1601;SDS011;794;48.592;9.634;2022-07-17T04:36:08;3.77;;;3.47;;
1601;SDS011;794;48.592;9.634;2022-07-17T04:38:35;4.73;;;2.97;;
1601;SDS011;794;48.592;9.634;2022-07-17T04:41:02;3.90;;;2.77;;
1601;SDS011;794;48.592;9.634;2022-07-17T04:43:29;2.77;;;2.57;;
1601;SDS011;794;48.592;9.634;2022-07-17T04:45:56;4.10;;;3.77;;
1601;SDS011;794;48.592;9.634;2022-07-17T04:48:22;2.90;;;2.53;;
1601;SDS011;794;48.592;9.634;2022-07-17T04:50:51;2.37;;;2.17;;
1601;SDS011;794;48.592;9.634;2022-07-17T04:53:18;2.67;;;2.47;;
1601;SDS011;794;48.592;9.634;2022-07-17T04:55:44;2.70;;;2.50;;
1601;SDS011;794;48.592;9.634;2022-07-17T04:58:11;4.90;;;2.80;;
1601;SDS011;794;48.592;9.634;2022-07-17T05:00:46;2.37;;;2.10;;
1601;SDS011;794;48.592;9.634;2022-07-17T05:03:13;3.07;;;2.10;;
1601;SDS011;794;48.592;9.634;2022-07-17T05:05:42;2.70;;;2.30;;
1601;SDS011;794;48.592;9.634;2022-07-17T05:08:11;2.33;;;2.00;;
1601;SDS011;794;48.592;9.634;2022-07-17T05:10:38;2.07;;;1.90;;
1601;SDS011;794;48.592;9.634;2022-07-17T05:13:04;4.40;;;2.27;;
1601;SDS011;794;48.592;9.634;2022-07-17T05:15:32;3.30;;;1.80;;
1601;SDS011;794;48.592;9.634;2022-07-17T05:17:59;2.10;;;1.80;;
1601;SDS011;794;48.592;9.634;2022-07-17T05:20:26;3.20;;;2.90;;
1601;SDS011;794;48.592;9.634;2022-07-17T05:22:52;4.07;;;3.77;;
1601;SDS011;794;48.592;9.634;2022-07-17T05:25:21;3.00;;;2.63;;
1601;SDS011;794;48.592;9.634;2022-07-17T05:27:48;4.80;;;4.40;;
1601;SDS011;794;48.592;9.634;2022-07-17T05:30:15;5.80;;;5.00;;
1601;SDS011;794;48.592;9.634;2022-07-17T05:32:42;7.90;;;5.50;;
1601;SDS011;794;48.592;9.634;2022-07-17T05:35:08;6.43;;;5.07;;
1601;SDS011;794;48.592;9.634;2022-07-17T05:37:35;6.60;;;4.70;;
1601;SDS011;794;48.592;9.634;2022-07-17T05:40:02;7.10;;;4.43;;
1601;SDS011;794;48.592;9.634;2022-07-17T05:42:32;8.63;;;4.70;;
1601;SDS011;794;48.592;9.634;2022-07-17T05:44:58;5.20;;;4.70;;
1601;SDS011;794;48.592;9.634;2022-07-17T05:47:25;4.17;;;3.87;;
1601;SDS011;794;48.592;9.634;2022-07-17T05:49:52;5.00;;;4.33;;
1601;SDS011;794;48.592;9.634;2022-07-17T05:52:19;4.67;;;4.10;;
1601;SDS011;794;48.592;9.634;2022-07-17T05:54:46;4.60;;;4.20;;
1601;SDS011;794;48.592;9.634;2022-07-17T05:57:13;4.13;;;3.67;;
1601;SDS011;794;48.592;9.634;2022-07-17T05:59:41;4.70;;;3.90;;
1601;SDS011;794;48.592;9.634;2022-07-17T06:02:09;7.60;;;4.77;;
1601;SDS011;794;48.592;9.634;2022-07-17T06:04:36;3.87;;;3.57;;
1601;SDS011;794;48.592;9.634;2022-07-17T06:07:03;5.17;;;4.30;;
1601;SDS011;794;48.592;9.634;2022-07-17T06:09:30;4.43;;;4.03;;
1601;SDS011;794;48.592;9.634;2022-07-17T06:11:57;4.63;;;3.03;;
1601;SDS011;794;48.592;9.634;2022-07-17T06:14:24;5.73;;;3.60;;
1601;SDS011;794;48.592;9.634;2022-07-17T06:16:52;5.03;;;3.90;;
1601;SDS011;794;48.592;9.634;2022-07-17T06:19:19;6.30;;;3.43;;
1601;SDS011;794;48.592;9.634;2022-07-17T06:21:46;2.60;;;2.40;;
1601;SDS011;794;48.592;9.634;2022-07-17T06:24:13;5.80;;;2.53;;
1601;SDS011;794;48.592;9.634;2022-07-17T06:26:39;2.60;;;2.40;;
1601;SDS011;794;48.592;9.634;2022-07-17T06:29:06;2.37;;;2.17;;
1601;SDS011;794;48.592;9.634;2022-07-17T06:31:33;4.40;;;2.57;;
1601;SDS011;794;48.592;9.634;2022-07-17T06:34:02;1.93;;;1.83;;
1601;SDS011;794;48.592;9.634;2022-07-17T06:36:29;2.20;;;1.93;;
1601;SDS011;794;48.592;9.634;2022-07-17T06:38:56;2.60;;;1.80;;
1601;SDS011;794;48.592;9.634;2022-07-17T06:41:23;2.30;;;1.90;;
1601;SDS011;794;48.592;9.634;2022-07-17T06:44:04;2.20;;;1.83;;
1601;SDS011;794;48.592;9.634;2022-07-17T06:46:30;2.33;;;2.07;;
1601;SDS011;794;48.592;9.634;2022-07-17T06:48:57;3.37;;;1.87;;
1601;SDS011;794;48.592;9.634;2022-07-17T06:51:26;4.73;;;1.80;;
1601;SDS011;794;48.592;9.634;2022-07-17T06:53:53;2.77;;;1.90;;
1601;SDS011;794;48.592;9.634;2022-07-17T06:56:20;6.30;;;2.13;;
1601;SDS011;794;48.592;9.634;2022-07-17T06:58:47;3.00;;;1.77;;
1601;SDS011;794;48.592;9.634;2022-07-17T07:01:14;4.93;;;1.70;;
1601;SDS011;794;48.592;9.634;2022-07-17T07:03:41;2.60;;;2.00;;
1601;SDS011;794;48.592;9.634;2022-07-17T07:06:08;2.73;;;2.07;;
1601;SDS011;794;48.592;9.634;2022-07-17T07:08:36;3.10;;;2.03;;
1601;SDS011;794;48.592;9.634;2022-07-17T07:11:03;2.20;;;2.07;;
1601;SDS011;794;48.592;9.634;2022-07-17T07:13:30;2.17;;;1.97;;
1601;SDS011;794;48.592;9.634;2022-07-17T07:15:57;1.83;;;1.73;;
1601;SDS011;794;48.592;9.634;2022-07-17T07:18:24;1.90;;;1.80;;
1601;SDS011;794;48.592;9.634;2022-07-17T07:20:51;3.40;;;2.47;;
1601;SDS011;794;48.592;9.634;2022-07-17T07:23:18;2.87;;;1.97;;
1601;SDS011;794;48.592;9.634;2022-07-17T07:25:46;1.83;;;1.73;;
1601;SDS011;794;48.592;9.634;2022-07-17T07:28:13;2.43;;;2.23;;
1601;SDS011;794;48.592;9.634;2022-07-17T07:30:40;5.10;;;2.20;;
1601;SDS011;794;48.592;9.634;2022-07-17T07:33:07;2.70;;;2.20;;
1601;SDS011;794;48.592;9.634;2022-07-17T07:35:35;2.50;;;2.30;;
1601;SDS011;794;48.592;9.634;2022-07-17T07:38:02;4.03;;;1.83;;
1601;SDS011;794;48.592;9.634;2022-07-17T07:40:29;2.83;;;1.90;;
1601;SDS011;794;48.592;9.634;2022-07-17T07:42:58;2.37;;;1.53;;
1601;SDS011;794;48.592;9.634;2022-07-17T07:45:28;3.80;;;2.10;;
1601;SDS011;794;48.592;9.634;2022-07-17T07:47:56;2.40;;;2.20;;
1601;SDS011;794;48.592;9.634;2022-07-17T07:50:23;3.73;;;1.67;;
1601;SDS011;794;48.592;9.634;2022-07-17T07:52:51;1.63;;;1.53;;
1601;SDS011;794;48.592;9.634;2022-07-17T07:55:21;4.83;;;2.00;;
1601;SDS011;794;48.592;9.634;2022-07-17T07:57:49;6.33;;;2.20;;
1601;SDS011;794;48.592;9.634;2022-07-17T08:00:30;1.80;;;1.43;;
1601;SDS011;794;48.592;9.634;2022-07-17T08:03:03;3.40;;;1.70;;
1601;SDS011;794;48.592;9.634;2022-07-17T08:05:35;2.47;;;1.50;;
1601;SDS011;794;48.592;9.634;2022-07-17T08:08:02;2.60;;;1.63;;
1601;SDS011;794;48.592;9.634;2022-07-17T08:10:29;3.93;;;1.60;;
1601;SDS011;794;48.592;9.634;2022-07-17T08:12:56;2.07;;;1.70;;
1601;SDS011;794;48.592;9.634;2022-07-17T08:15:23;3.20;;;2.17;;
1601;SDS011;794;48.592;9.634;2022-07-17T08:17:52;5.20;;;2.67;;
1601;SDS011;794;48.592;9.634;2022-07-17T08:20:25;1.80;;;1.70;;
1601;SDS011;794;48.592;9.634;2022-07-17T08:22:53;3.47;;;2.43;;
1601;SDS011;794;48.592;9.634;2022-07-17T08:25:20;5.00;;;2.30;;
1601;SDS011;794;48.592;9.634;2022-07-17T08:27:47;2.37;;;2.17;;
1601;SDS011;794;48.592;9.634;2022-07-17T08:30:17;2.00;;;1.90;;
1601;SDS011;794;48.592;9.634;2022-07-17T08:32:44;3.10;;;1.80;;
1601;SDS011;794;48.592;9.634;2022-07-17T08:35:13;1.90;;;1.70;;
1601;SDS011;794;48.592;9.634;2022-07-17T08:37:46;2.50;;;1.70;;
1601;SDS011;794;48.592;9.634;2022-07-17T08:40:15;1.60;;;1.50;;
1601;SDS011;794;48.592;9.634;2022-07-17T08:42:46;1.97;;;1.63;;
1601;SDS011;794;48.592;9.634;2022-07-17T08:45:13;2.53;;;1.97;;
1601;SDS011;794;48.592;9.634;2022-07-17T08:47:40;2.00;;;1.90;;
1601;SDS011;794;48.592;9.634;2022-07-17T08:50:08;2.07;;;1.87;;
1601;SDS011;794;48.592;9.634;2022-07-17T08:52:38;2.30;;;2.20;;
1601;SDS011;794;48.592;9.634;2022-07-17T08:55:07;2.70;;;1.97;;
1601;SDS011;794;48.592;9.634;2022-07-17T08:57:36;2.03;;;1.83;;
1601;SDS011;794;48.592;9.634;2022-07-17T09:00:05;1.63;;;1.50;;
1601;SDS011;794;48.592;9.634;2022-07-17T09:02:33;2.40;;;1.50;;
1601;SDS011;794;48.592;9.634;2022-07-17T09:05:01;3.50;;;2.00;;
1601;SDS011;794;48.592;9.634;2022-07-17T09:07:27;1.90;;;1.80;;
1601;SDS011;794;48.592;9.634;2022-07-17T09:09:57;4.47;;;1.80;;
1601;SDS011;794;48.592;9.634;2022-07-17T09:12:24;2.60;;;1.83;;
1601;SDS011;794;48.592;9.634;2022-07-17T09:14:53;2.30;;;1.73;;
1601;SDS011;794;48.592;9.634;2022-07-17T09:17:20;2.37;;;2.17;;
1601;SDS011;794;48.592;9.634;2022-07-17T09:19:47;2.20;;;2.00;;
1601;SDS011;794;48.592;9.634;2022-07-17T09:22:15;3.57;;;1.80;;
1601;SDS011;794;48.592;9.634;2022-07-17T09:24:44;4.40;;;2.00;;
1601;SDS011;794;48.592;9.634;2022-07-17T09:27:15;1.87;;;1.60;;
1601;SDS011;794;48.592;9.634;2022-07-17T09:29:55;2.00;;;1.90;;
1601;SDS011;794;48.592;9.634;2022-07-17T09:32:29;3.10;;;1.80;;
1601;SDS011;794;48.592;9.634;2022-07-17T09:35:01;2.00;;;1.70;;
1601;SDS011;794;48.592;9.634;2022-07-17T09:37:30;2.80;;;1.90;;
1601;SDS011;794;48.592;9.634;2022-07-17T09:39:58;3.30;;;1.90;;
1601;SDS011;794;48.592;9.634;2022-07-17T09:42:28;2.17;;;1.97;;
1601;SDS011;794;48.592;9.634;2022-07-17T09:44:57;2.97;;;1.80;;
1601;SDS011;794;48.592;9.634;2022-07-17T09:47:25;2.03;;;1.83;;
1601;SDS011;794;48.592;9.634;2022-07-17T09:49:52;2.20;;;2.00;;
1601;SDS011;794;48.592;9.634;2022-07-17T09:52:21;2.83;;;1.97;;
1601;SDS011;794;48.592;9.634;2022-07-17T09:54:51;2.33;;;2.13;;
1601;SDS011;794;48.592;9.634;2022-07-17T09:57:19;3.97;;;1.67;;
1601;SDS011;794;48.592;9.634;2022-07-17T10:00:01;1.97;;;1.77;;
1601;SDS011;794;48.592;9.634;2022-07-17T10:02:31;2.60;;;1.80;;
1601;SDS011;794;48.592;9.634;2022-07-17T10:04:59;6.50;;;2.10;;
1601;SDS011;794;48.592;9.634;2022-07-17T10:07:26;4.03;;;1.90;;
1601;SDS011;794;48.592;9.634;2022-07-17T10:09:54;3.43;;;1.80;;
1601;SDS011;794;48.592;9.634;2022-07-17T10:12:24;1.80;;;1.70;;
1601;SDS011;794;48.592;9.634;2022-07-17T10:14:51;2.90;;;1.77;;
1601;SDS011;794;48.592;9.634;2022-07-17T10:17:20;2.70;;;2.27;;
1601;SDS011;794;48.592;9.634;2022-07-17T10:19:49;4.30;;;2.40;;
1601;SDS011;794;48.592;9.634;2022-07-17T10:22:17;1.63;;;1.53;;
1601;SDS011;794;48.592;9.634;2022-07-17T10:24:44;2.80;;;2.60;;
1601;SDS011;794;48.592;9.634;2022-07-17T10:27:17;3.33;;;2.50;;
1601;SDS011;794;48.592;9.634;2022-07-17T10:29:45;2.00;;;1.80;;
1601;SDS011;794;48.592;9.634;2022-07-17T10:32:14;2.40;;;2.20;;
1601;SDS011;794;48.592;9.634;2022-07-17T10:34:45;2.70;;;2.40;;
1601;SDS011;794;48.592;9.634;2022-07-17T10:37:17;3.50;;;2.00;;
1601;SDS011;794;48.592;9.634;2022-07-17T10:39:53;3.00;;;2.27;;
1601;SDS011;794;48.592;9.634;2022-07-17T10:45:12;1.90;;;1.80;;
1601;SDS011;794;48.592;9.634;2022-07-17T10:47:44;2.23;;;2.10;;
1601;SDS011;794;48.592;9.634;2022-07-17T10:50:14;3.13;;;2.13;;
1601;SDS011;794;48.592;9.634;2022-07-17T10:52:41;2.23;;;2.03;;
1601;SDS011;794;48.592;9.634;2022-07-17T10:55:18;2.83;;;2.63;;
1601;SDS011;794;48.592;9.634;2022-07-17T10:57:46;3.10;;;2.50;;
1601;SDS011;794;48.592;9.634;2022-07-17T11:00:14;4.93;;;2.67;;
1601;SDS011;794;48.592;9.634;2022-07-17T11:02:41;2.30;;;2.10;;
1601;SDS011;794;48.592;9.634;2022-07-17T11:05:09;2.43;;;2.00;;
1601;SDS011;794;48.592;9.634;2022-07-17T11:07:49;2.03;;;1.93;;
1601;SDS011;794;48.592;9.634;2022-07-17T11:10:17;3.10;;;2.47;;
1601;SDS011;794;48.592;9.634;2022-07-17T11:12:44;2.53;;;2.33;;
1601;SDS011;794;48.592;9.634;2022-07-17T11:15:11;2.97;;;1.87;;
1601;SDS011;794;48.592;9.634;2022-07-17T11:17:38;2.00;;;1.90;;
1601;SDS011;794;48.592;9.634;2022-07-17T11:20:10;2.20;;;2.10;;
1601;SDS011;794;48.592;9.634;2022-07-17T11:22:37;3.07;;;2.30;;
1601;SDS011;794;48.592;9.634;2022-07-17T11:25:06;2.90;;;2.70;;
1601;SDS011;794;48.592;9.634;2022-07-17T11:27:35;2.40;;;2.00;;
1601;SDS011;794;48.592;9.634;2022-07-17T11:30:03;2.40;;;1.83;;
1601;SDS011;794;48.592;9.634;2022-07-17T11:32:32;6.57;;;3.03;;
1601;SDS011;794;48.592;9.634;2022-07-17T11:34:59;2.87;;;2.67;;
1601;SDS011;794;48.592;9.634;2022-07-17T11:37:28;2.37;;;2.17;;
1601;SDS011;794;48.592;9.634;2022-07-17T11:39:55;6.33;;;2.53;;
1601;SDS011;794;48.592;9.634;2022-07-17T11:42:25;4.63;;;2.60;;
1601;SDS011;794;48.592;9.634;2022-07-17T11:44:53;3.63;;;2.70;;
1601;SDS011;794;48.592;9.634;2022-07-17T11:47:22;3.90;;;2.27;;
1601;SDS011;794;48.592;9.634;2022-07-17T11:49:49;1.90;;;1.80;;
1601;SDS011;794;48.592;9.634;2022-07-17T11:52:17;2.43;;;2.23;;
1601;SDS011;794;48.592;9.634;2022-07-17T11:54:46;3.57;;;2.30;;
1601;SDS011;794;48.592;9.634;2022-07-17T11:57:15;2.60;;;2.40;;
1601;SDS011;794;48.592;9.634;2022-07-17T11:59:44;2.43;;;2.23;;
1601;SDS011;794;48.592;9.634;2022-07-17T12:02:12;2.50;;;2.30;;
1601;SDS011;794;48.592;9.634;2022-07-17T12:04:47;5.53;;;2.40;;
1601;SDS011;794;48.592;9.634;2022-07-17T12:07:16;4.00;;;2.13;;
1601;SDS011;794;48.592;9.634;2022-07-17T12:09:43;6.90;;;2.77;;
1601;SDS011;794;48.592;9.634;2022-07-17T12:12:17;2.17;;;1.93;;
1601;SDS011;794;48.592;9.634;2022-07-17T12:14:49;3.00;;;2.10;;
1601;SDS011;794;48.592;9.634;2022-07-17T12:17:16;2.73;;;2.47;;
1601;SDS011;794;48.592;9.634;2022-07-17T12:19:43;2.57;;;2.37;;
1601;SDS011;794;48.592;9.634;2022-07-17T12:22:10;2.50;;;2.30;;
1601;SDS011;794;48.592;9.634;2022-07-17T12:24:38;3.17;;;2.10;;
1601;SDS011;794;48.592;9.634;2022-07-17T12:27:07;2.40;;;2.20;;
1601;SDS011;794;48.592;9.634;2022-07-17T12:29:35;2.40;;;2.20;;
1601;SDS011;794;48.592;9.634;2022-07-17T12:32:05;2.50;;;2.30;;
1601;SDS011;794;48.592;9.634;2022-07-17T12:34:34;2.37;;;2.17;;
1601;SDS011;794;48.592;9.634;2022-07-17T12:37:01;2.80;;;2.60;;
1601;SDS011;794;48.592;9.634;2022-07-17T12:39:28;2.53;;;2.30;;
1601;SDS011;794;48.592;9.634;2022-07-17T12:41:55;2.40;;;2.20;;
1601;SDS011;794;48.592;9.634;2022-07-17T12:44:22;4.03;;;2.37;;
1601;SDS011;794;48.592;9.634;2022-07-17T12:46:49;2.93;;;2.43;;
1601;SDS011;794;48.592;9.634;2022-07-17T12:49:18;2.17;;;2.07;;
1601;SDS011;794;48.592;9.634;2022-07-17T12:51:45;4.50;;;2.30;;
1601;SDS011;794;48.592;9.634;2022-07-17T12:54:12;2.50;;;2.30;;
1601;SDS011;794;48.592;9.634;2022-07-17T12:56:39;2.70;;;2.50;;
1601;SDS011;794;48.592;9.634;2022-07-17T12:59:06;2.17;;;1.97;;
1601;SDS011;794;48.592;9.634;2022-07-17T13:01:34;2.73;;;2.53;;
1601;SDS011;794;48.592;9.634;2022-07-17T13:04:10;3.73;;;2.80;;
1601;SDS011;794;48.592;9.634;2022-07-17T13:06:38;2.53;;;2.23;;
1601;SDS011;794;48.592;9.634;2022-07-17T13:09:06;2.87;;;2.67;;
1601;SDS011;794;48.592;9.634;2022-07-17T13:11:33;2.93;;;2.60;;
1601;SDS011;794;48.592;9.634;2022-07-17T13:14:00;2.47;;;2.27;;
1601;SDS011;794;48.592;9.634;2022-07-17T13:16:27;2.60;;;2.40;;
1601;SDS011;794;48.592;9.634;2022-07-17T13:18:54;3.50;;;2.50;;
1601;SDS011;794;48.592;9.634;2022-07-17T13:21:21;4.87;;;2.30;;
1601;SDS011;794;48.592;9.634;2022-07-17T13:23:49;2.53;;;2.33;;
1601;SDS011;794;48.592;9.634;2022-07-17T13:26:16;4.47;;;2.20;;
1601;SDS011;794;48.592;9.634;2022-07-17T13:28:43;2.40;;;2.30;;
1601;SDS011;794;48.592;9.634;2022-07-17T13:31:10;2.20;;;2.10;;
1601;SDS011;794;48.592;9.634;2022-07-17T13:33:37;2.80;;;2.37;;
1601;SDS011;794;48.592;9.634;2022-07-17T13:36:04;2.30;;;2.10;;
1601;SDS011;794;48.592;9.634;2022-07-17T13:38:31;2.60;;;2.40;;
1601;SDS011;794;48.592;9.634;2022-07-17T13:41:00;2.30;;;2.10;;
1601;SDS011;794;48.592;9.634;2022-07-17T13:43:27;2.90;;;2.10;;
1601;SDS011;794;48.592;9.634;2022-07-17T13:45:54;3.27;;;2.60;;
1601;SDS011;794;48.592;9.634;2022-07-17T13:48:21;3.10;;;2.67;;
1601;SDS011;794;48.592;9.634;2022-07-17T13:50:47;3.40;;;2.30;;
1601;SDS011;794;48.592;9.634;2022-07-17T13:53:14;2.33;;;2.20;;
1601;SDS011;794;48.592;9.634;2022-07-17T13:55:42;4.87;;;2.50;;
1601;SDS011;794;48.592;9.634;2022-07-17T13:58:10;2.30;;;2.10;;
1601;SDS011;794;48.592;9.634;2022-07-17T14:00:37;2.60;;;2.43;;
1601;SDS011;794;48.592;9.634;2022-07-17T14:03:04;2.40;;;2.20;;
1601;SDS011;794;48.592;9.634;2022-07-17T14:05:30;2.93;;;2.63;;
1601;SDS011;794;48.592;9.634;2022-07-17T14:07:57;2.33;;;2.23;;
1601;SDS011;794;48.592;9.634;2022-07-17T14:10:24;2.70;;;2.50;;
1601;SDS011;794;48.592;9.634;2022-07-17T14:12:51;3.17;;;2.87;;
1601;SDS011;794;48.592;9.634;2022-07-17T14:15:19;3.43;;;2.30;;
1601;SDS011;794;48.592;9.634;2022-07-17T14:17:46;4.00;;;2.27;;
1601;SDS011;794;48.592;9.634;2022-07-17T14:20:13;2.83;;;2.63;;
1601;SDS011;794;48.592;9.634;2022-07-17T14:22:40;3.00;;;2.30;;
1601;SDS011;794;48.592;9.634;2022-07-17T14:25:07;2.77;;;2.47;;
1601;SDS011;794;48.592;9.634;2022-07-17T14:27:35;3.10;;;2.20;;
1601;SDS011;794;48.592;9.634;2022-07-17T14:30:02;2.90;;;2.50;;
1601;SDS011;794;48.592;9.634;2022-07-17T14:32:30;2.67;;;2.47;;
1601;SDS011;794;48.592;9.634;2022-07-17T14:34:57;3.63;;;1.80;;
1601;SDS011;794;48.592;9.634;2022-07-17T14:37:24;1.90;;;1.80;;
1601;SDS011;794;48.592;9.634;2022-07-17T14:39:51;2.87;;;1.77;;
1601;SDS011;794;48.592;9.634;2022-07-17T14:42:18;2.63;;;2.43;;
1601;SDS011;794;48.592;9.634;2022-07-17T14:44:45;2.70;;;2.33;;
1601;SDS011;794;48.592;9.634;2022-07-17T14:47:12;2.00;;;1.90;;
1601;SDS011;794;48.592;9.634;2022-07-17T14:49:42;3.27;;;1.90;;
1601;SDS011;794;48.592;9.634;2022-07-17T14:52:09;9.03;;;2.40;;
1601;SDS011;794;48.592;9.634;2022-07-17T14:54:36;2.63;;;2.43;;
1601;SDS011;794;48.592;9.634;2022-07-17T14:57:02;2.03;;;1.80;;
1601;SDS011;794;48.592;9.634;2022-07-17T14:59:29;4.27;;;2.30;;
1601;SDS011;794;48.592;9.634;2022-07-17T15:01:57;2.20;;;2.03;;
1601;SDS011;794;48.592;9.634;2022-07-17T15:04:24;3.30;;;1.83;;
1601;SDS011;794;48.592;9.634;2022-07-17T15:06:52;2.43;;;1.97;;
1601;SDS011;794;48.592;9.634;2022-07-17T15:09:19;2.33;;;2.13;;
1601;SDS011;794;48.592;9.634;2022-07-17T15:11:47;2.63;;;1.97;;
1601;SDS011;794;48.592;9.634;2022-07-17T15:14:13;2.20;;;2.00;;
1601;SDS011;794;48.592;9.634;2022-07-17T15:16:40;3.70;;;2.10;;
1601;SDS011;794;48.592;9.634;2022-07-17T15:19:07;2.30;;;2.10;;
1601;SDS011;794;48.592;9.634;2022-07-17T15:21:34;3.13;;;2.03;;
1601;SDS011;794;48.592;9.634;2022-07-17T15:24:03;1.97;;;1.87;;
1601;SDS011;794;48.592;9.634;2022-07-17T15:26:30;1.50;;;1.40;;
1601;SDS011;794;48.592;9.634;2022-07-17T15:28:57;2.37;;;1.73;;
1601;SDS011;794;48.592;9.634;2022-07-17T15:31:24;2.90;;;2.00;;
1601;SDS011;794;48.592;9.634;2022-07-17T15:33:51;2.80;;;1.83;;
1601;SDS011;794;48.592;9.634;2022-07-17T15:36:18;2.80;;;2.60;;
1601;SDS011;794;48.592;9.634;2022-07-17T15:38:52;3.87;;;1.97;;
1601;SDS011;794;48.592;9.634;2022-07-17T15:41:23;2.53;;;1.60;;
1601;SDS011;794;48.592;9.634;2022-07-17T15:43:50;1.97;;;1.77;;